Time;durP1;ratioP1;P1;durP2;ratioP2;P2;SDS_P1;SDS_P2;PMS_P1;PMS_P2;Temp;Humidity;BMP_temperature;BMP_pressure;BME280_temperature;BME280_humidity;BME280_pressure;Samples;Min_cycle;Max_cycle;Signal;HPM_P1;HPM_P2
2023/06/25 00:01:02;;;;;;;;;;;;;;;15.70;100.00;99552.63;5012261;28;811;-54
2023/06/25 00:03:29;;;;;;;;;;;;;;;15.68;100.00;99546.72;5012153;28;886;-57
2023/06/25 00:05:56;;;;;;;;;;;;;;;15.63;100.00;99546.47;5012054;28;894;-57
2023/06/25 00:08:22;;;;;;;;;;;;;;;15.57;100.00;99537.09;5012072;28;819;-56
2023/06/25 00:10:50;;;;;;;;;;;;;;;15.58;100.00;99544.25;5012316;28;932;-57
2023/06/25 00:13:16;;;;;;;;;;;;;;;15.73;100.00;99547.41;5011212;28;1997;-57
2023/06/25 00:15:42;;;;;;;;;;;;;;;15.67;100.00;99542.34;5012001;28;890;-55
2023/06/25 00:18:08;;;;;;;;;;;;;;;15.57;100.00;99539.88;5012003;28;859;-55
2023/06/25 00:20:35;;;;;;;;;;;;;;;15.54;100.00;99538.00;5011912;28;807;-57
2023/06/25 00:23:02;;;;;;;;;;;;;;;15.53;100.00;99539.97;5012156;28;811;-57
2023/06/25 00:25:29;;;;;;;;;;;;;;;15.58;100.00;99539.44;5011895;28;803;-57
2023/06/25 00:27:57;;;;;;;;;;;;;;;15.57;100.00;99532.31;5011743;28;807;-56
2023/06/25 00:30:25;;;;;;;;;;;;;;;15.62;100.00;99542.91;5011852;28;815;-57
2023/06/25 00:32:54;;;;;;;;;;;;;;;15.70;100.00;99540.69;5011665;28;1886;-56
2023/06/25 00:35:24;;;;;;;;;;;;;;;15.70;100.00;99546.25;5012019;28;959;-57
2023/06/25 00:38:00;;;;;;;;;;;;;;;15.71;100.00;99534.69;5011967;28;811;-56
2023/06/25 00:40:27;;;;;;;;;;;;;;;15.72;100.00;99546.63;5011815;28;846;-57
2023/06/25 00:42:58;;;;;;;;;;;;;;;15.69;100.00;99542.69;5011717;28;796;-57
2023/06/25 00:45:24;;;;;;;;;;;;;;;15.70;100.00;99535.91;5011623;28;879;-56
2023/06/25 00:47:51;;;;;;;;;;;;;;;15.73;100.00;99541.84;5011567;28;844;-55
2023/06/25 00:50:25;;;;;;;;;;;;;;;15.77;100.00;99542.50;5011655;28;807;-56
2023/06/25 00:52:52;;;;;;;;;;;;;;;15.85;100.00;99541.84;5012143;28;1894;-57
2023/06/25 00:55:19;;;;;;;;;;;;;;;15.92;100.00;99543.63;5011644;28;851;-56
2023/06/25 00:57:47;;;;;;;;;;;;;;;15.90;100.00;99544.06;5012309;28;858;-56
2023/06/25 01:00:14;;;;;;;;;;;;;;;15.83;100.00;99543.50;5011639;28;831;-56
2023/06/25 01:02:44;;;;;;;;;;;;;;;15.84;100.00;99545.84;5011784;28;902;-56
2023/06/25 01:05:19;;;;;;;;;;;;;;;15.85;100.00;99549.41;5011451;28;794;-56
2023/06/25 01:07:46;;;;;;;;;;;;;;;15.76;100.00;99540.94;5011577;28;858;-56
2023/06/25 01:10:13;;;;;;;;;;;;;;;15.58;100.00;99547.03;5011465;28;825;-55
2023/06/25 01:12:40;;;;;;;;;;;;;;;15.45;100.00;99538.66;5011143;28;1178;-56
2023/06/25 01:15:11;;;;;;;;;;;;;;;15.36;100.00;99538.50;5011294;28;1085;-56
2023/06/25 01:17:39;;;;;;;;;;;;;;;15.25;100.00;99524.88;5011437;28;854;-56
2023/06/25 01:20:11;;;;;;;;;;;;;;;15.18;100.00;99525.09;5011670;28;818;-57
2023/06/25 01:22:38;;;;;;;;;;;;;;;15.23;100.00;99521.75;5011631;28;827;-56
2023/06/25 01:25:05;;;;;;;;;;;;;;;15.28;100.00;99515.66;5013718;28;870;-56
2023/06/25 01:27:33;;;;;;;;;;;;;;;15.28;100.00;99527.56;5015299;28;811;-56
2023/06/25 01:29:59;;;;;;;;;;;;;;;15.31;100.00;99526.69;4997527;28;897;-56
2023/06/25 01:32:26;;;;;;;;;;;;;;;15.31;100.00;99529.47;5015488;28;884;-56
2023/06/25 01:34:52;;;;;;;;;;;;;;;15.32;100.00;99535.84;5015060;28;1914;-56
2023/06/25 01:37:19;;;;;;;;;;;;;;;15.32;100.00;99533.81;5015550;28;839;-56
2023/06/25 01:39:49;;;;;;;;;;;;;;;15.31;100.00;99537.81;5014719;28;894;-57
2023/06/25 01:42:15;;;;;;;;;;;;;;;15.18;100.00;99511.94;5014895;28;847;-56
2023/06/25 01:44:42;;;;;;;;;;;;;;;15.34;100.00;99532.59;5014768;28;935;-54
2023/06/25 01:47:09;;;;;;;;;;;;;;;15.43;100.00;99529.97;5014906;28;862;-55
2023/06/25 01:49:35;;;;;;;;;;;;;;;15.50;100.00;99535.31;5015090;28;807;-54
2023/06/25 01:52:02;;;;;;;;;;;;;;;15.61;100.00;99532.97;5014824;28;811;-54
2023/06/25 01:54:29;;;;;;;;;;;;;;;15.66;100.00;99529.66;5014798;28;1889;-55
2023/06/25 01:56:56;;;;;;;;;;;;;;;15.68;100.00;99530.00;5014815;28;796;-55
2023/06/25 01:59:22;;;;;;;;;;;;;;;15.68;100.00;99537.56;5015254;28;837;-55
2023/06/25 02:01:49;;;;;;;;;;;;;;;15.67;100.00;99541.56;5015096;28;862;-55
2023/06/25 02:04:16;;;;;;;;;;;;;;;15.65;100.00;99532.88;5014723;28;819;-55
2023/06/25 02:06:43;;;;;;;;;;;;;;;15.66;100.00;99532.44;5014694;28;831;-55
2023/06/25 02:09:10;;;;;;;;;;;;;;;15.68;100.00;99538.34;5014926;28;780;-55
2023/06/25 02:11:37;;;;;;;;;;;;;;;15.69;100.00;99539.91;5014699;28;946;-54
2023/06/25 02:14:05;;;;;;;;;;;;;;;15.77;100.00;99534.13;5014013;28;1902;-54
2023/06/25 02:16:32;;;;;;;;;;;;;;;15.75;100.00;99533.81;5014378;28;898;-55
2023/06/25 02:18:59;;;;;;;;;;;;;;;15.75;100.00;99529.03;5014261;28;867;-56
2023/06/25 02:21:25;;;;;;;;;;;;;;;15.66;100.00;99535.22;5014715;28;760;-56
2023/06/25 02:23:52;;;;;;;;;;;;;;;15.59;100.00;99535.44;5014087;28;894;-56
2023/06/25 02:26:19;;;;;;;;;;;;;;;15.55;100.00;99522.84;5014466;28;890;-56
2023/06/25 02:28:45;;;;;;;;;;;;;;;15.50;100.00;99526.94;5013951;28;831;-56
2023/06/25 02:31:12;;;;;;;;;;;;;;;15.45;100.00;99519.94;5013854;28;820;-55
2023/06/25 02:33:38;;;;;;;;;;;;;;;15.42;100.00;99522.81;5013759;28;1973;-55
2023/06/25 02:36:05;;;;;;;;;;;;;;;15.41;100.00;99521.25;5013320;28;863;-56
2023/06/25 02:38:32;;;;;;;;;;;;;;;15.40;100.00;99516.91;5013698;28;874;-57
2023/06/25 02:40:58;;;;;;;;;;;;;;;15.42;100.00;99518.00;5013642;28;859;-56
2023/06/25 02:43:25;;;;;;;;;;;;;;;15.45;100.00;99519.16;5013673;28;831;-56
2023/06/25 02:45:52;;;;;;;;;;;;;;;15.44;100.00;99515.56;5013637;28;847;-56
2023/06/25 02:48:19;;;;;;;;;;;;;;;15.36;100.00;99510.66;5013527;28;819;-55
2023/06/25 02:50:45;;;;;;;;;;;;;;;15.29;100.00;99515.19;5013484;28;807;-54
2023/06/25 02:53:12;;;;;;;;;;;;;;;15.43;100.00;99504.88;5013417;28;1886;-57
2023/06/25 02:55:39;;;;;;;;;;;;;;;15.81;100.00;99512.50;5013224;28;807;-56
2023/06/25 02:58:05;;;;;;;;;;;;;;;15.90;100.00;99516.22;5013372;28;874;-56
2023/06/25 03:00:32;;;;;;;;;;;;;;;15.91;100.00;99514.19;5013312;28;881;-55
2023/06/25 03:02:59;;;;;;;;;;;;;;;16.04;100.00;99509.38;5013469;28;869;-56
2023/06/25 03:05:25;;;;;;;;;;;;;;;16.07;100.00;99511.28;5013243;28;786;-56
2023/06/25 03:07:53;;;;;;;;;;;;;;;16.03;100.00;99518.22;5013224;28;823;-56
2023/06/25 03:10:23;;;;;;;;;;;;;;;15.96;100.00;99529.56;5013107;28;874;-55
2023/06/25 03:12:50;;;;;;;;;;;;;;;15.86;100.00;99528.69;5013042;28;1906;-54
2023/06/25 03:15:17;;;;;;;;;;;;;;;15.77;100.00;99523.00;5013204;28;834;-55
2023/06/25 03:17:44;;;;;;;;;;;;;;;15.76;100.00;99521.44;5012982;28;795;-55
2023/06/25 03:20:11;;;;;;;;;;;;;;;15.85;100.00;99518.75;5012928;28;795;-55
2023/06/25 03:22:39;;;;;;;;;;;;;;;16.05;100.00;99521.34;5012846;28;863;-56
2023/06/25 03:25:06;;;;;;;;;;;;;;;16.27;100.00;99524.22;5012743;28;843;-56
2023/06/25 03:27:36;;;;;;;;;;;;;;;16.41;100.00;99528.53;5012807;28;889;-56
2023/06/25 03:30:03;;;;;;;;;;;;;;;16.47;100.00;99535.91;5012992;28;850;-55
2023/06/25 03:32:30;;;;;;;;;;;;;;;16.56;100.00;99540.00;5012894;28;856;-56
2023/06/25 03:34:56;;;;;;;;;;;;;;;16.77;100.00;99538.47;5012936;28;1918;-56
2023/06/25 03:37:23;;;;;;;;;;;;;;;16.98;100.00;99537.00;5012777;28;914;-56
2023/06/25 03:39:50;;;;;;;;;;;;;;;17.13;100.00;99535.25;5012909;28;874;-56
2023/06/25 03:42:17;;;;;;;;;;;;;;;17.32;100.00;99531.34;5013089;28;882;-56
2023/06/25 03:44:53;;;;;;;;;;;;;;;17.41;100.00;99525.06;5012843;28;854;-55
2023/06/25 03:47:20;;;;;;;;;;;;;;;17.25;100.00;99531.63;5011634;28;827;-56
2023/06/25 03:49:47;;;;;;;;;;;;;;;17.10;100.00;99538.97;4994739;28;1308;-56
2023/06/25 03:52:14;;;;;;;;;;;;;;;16.92;100.00;99531.22;5012332;28;862;-55
2023/06/25 03:54:43;;;;;;;;;;;;;;;16.77;100.00;99530.91;5012019;28;1922;-56
2023/06/25 03:57:10;;;;;;;;;;;;;;;16.66;100.00;99530.47;5012522;28;895;-56
2023/06/25 03:59:36;;;;;;;;;;;;;;;16.62;100.00;99535.41;5012217;28;810;-55
2023/06/25 04:02:04;;;;;;;;;;;;;;;16.74;100.00;99531.81;5012171;28;803;-54
2023/06/25 04:04:30;;;;;;;;;;;;;;;17.05;100.00;99531.16;5012236;28;890;-55
2023/06/25 04:06:57;;;;;;;;;;;;;;;17.57;100.00;99529.66;5012143;28;878;-56
2023/06/25 04:09:24;;;;;;;;;;;;;;;18.13;100.00;99531.47;5012135;28;807;-56
2023/06/25 04:11:50;;;;;;;;;;;;;;;18.28;100.00;99526.06;4994628;28;1023;-57
2023/06/25 04:14:16;;;;;;;;;;;;;;;18.00;100.00;99516.81;5011869;28;1971;-56
2023/06/25 04:16:43;;;;;;;;;;;;;;;17.73;100.00;99523.84;5012010;28;883;-55
2023/06/25 04:19:10;;;;;;;;;;;;;;;17.73;100.00;99529.44;5011987;28;874;-55
2023/06/25 04:21:37;;;;;;;;;;;;;;;17.80;100.00;99530.38;5011970;28;846;-55
2023/06/25 04:24:04;;;;;;;;;;;;;;;17.82;100.00;99525.94;5011876;28;863;-56
2023/06/25 04:26:30;;;;;;;;;;;;;;;17.92;100.00;99524.72;5011896;28;875;-55
2023/06/25 04:28:57;;;;;;;;;;;;;;;18.02;100.00;99525.53;5011876;28;866;-56
2023/06/25 04:31:24;;;;;;;;;;;;;;;18.17;100.00;99517.34;5011832;28;850;-55
2023/06/25 04:33:51;;;;;;;;;;;;;;;18.38;100.00;99524.09;5011773;28;1894;-55
2023/06/25 04:36:18;;;;;;;;;;;;;;;18.69;100.00;99526.78;5011793;28;855;-53
2023/06/25 04:38:45;;;;;;;;;;;;;;;19.04;100.00;99518.09;5011671;28;874;-54
2023/06/25 04:41:11;;;;;;;;;;;;;;;19.32;100.00;99509.66;5011752;28;862;-54
2023/06/25 04:43:38;;;;;;;;;;;;;;;19.49;100.00;99513.66;5011724;28;831;-55
2023/06/25 04:46:05;;;;;;;;;;;;;;;19.67;100.00;99518.47;5011674;28;788;-56
2023/06/25 04:48:32;;;;;;;;;;;;;;;19.86;100.00;99516.38;5011687;28;847;-56
2023/06/25 04:50:58;;;;;;;;;;;;;;;20.05;100.00;99514.28;5011703;28;862;-56
2023/06/25 04:53:26;;;;;;;;;;;;;;;20.21;100.00;99512.34;5011727;28;1945;-55
2023/06/25 04:55:53;;;;;;;;;;;;;;;20.45;100.00;99498.31;5011659;28;814;-54
2023/06/25 04:58:20;;;;;;;;;;;;;;;20.71;98.55;99507.81;5012527;28;851;-55
2023/06/25 05:00:46;;;;;;;;;;;;;;;21.01;96.31;99508.66;5015648;28;854;-54
2023/06/25 05:03:13;;;;;;;;;;;;;;;21.30;94.70;99514.81;5015473;28;862;-54
2023/06/25 05:05:40;;;;;;;;;;;;;;;21.64;93.11;99507.75;5015552;28;811;-56
2023/06/25 05:08:06;;;;;;;;;;;;;;;21.94;91.10;99508.50;5015425;28;803;-55
2023/06/25 05:10:33;;;;;;;;;;;;;;;22.18;89.38;99502.69;5015511;28;811;-55
2023/06/25 05:13:00;;;;;;;;;;;;;;;22.47;87.83;99503.09;5015239;28;1902;-54
2023/06/25 05:15:26;;;;;;;;;;;;;;;22.74;85.90;99505.47;5015231;28;943;-55
2023/06/25 05:17:53;;;;;;;;;;;;;;;23.00;84.32;99504.75;5015262;28;830;-54
2023/06/25 05:20:20;;;;;;;;;;;;;;;23.17;83.64;99502.94;5015248;28;865;-54
2023/06/25 05:22:47;;;;;;;;;;;;;;;23.26;83.60;99504.81;5015024;28;815;-55
2023/06/25 05:25:13;;;;;;;;;;;;;;;23.48;83.49;99503.47;5015151;28;898;-54
2023/06/25 05:27:40;;;;;;;;;;;;;;;23.69;82.40;99502.09;5014980;28;834;-55
2023/06/25 05:30:08;;;;;;;;;;;;;;;23.91;80.38;99495.88;5014966;28;803;-56
2023/06/25 05:32:35;;;;;;;;;;;;;;;24.32;77.23;99492.03;5015333;28;863;-52
2023/06/25 05:35:01;;;;;;;;;;;;;;;24.77;74.02;99492.25;5014779;28;2009;-53
2023/06/25 05:37:28;;;;;;;;;;;;;;;25.00;72.50;99493.09;5014953;28;835;-56
2023/06/25 05:39:55;;;;;;;;;;;;;;;25.18;71.49;99494.69;5015019;28;898;-55
2023/06/25 05:42:22;;;;;;;;;;;;;;;25.36;70.40;99487.78;5015079;28;812;-53
2023/06/25 05:44:48;;;;;;;;;;;;;;;25.54;69.50;99486.50;5015068;28;819;-51
2023/06/25 05:47:15;;;;;;;;;;;;;;;25.75;69.20;99489.81;5014809;28;851;-51
2023/06/25 05:49:41;;;;;;;;;;;;;;;26.14;68.05;99480.53;5014792;28;880;-52
2023/06/25 05:52:08;;;;;;;;;;;;;;;26.41;65.93;99484.56;5014797;28;938;-52
2023/06/25 05:54:35;;;;;;;;;;;;;;;26.73;65.48;99476.47;5014845;28;1890;-53
2023/06/25 05:57:02;;;;;;;;;;;;;;;27.19;63.83;99474.94;5014762;28;858;-54
2023/06/25 05:59:28;;;;;;;;;;;;;;;27.63;62.39;99483.63;5015005;28;863;-55
2023/06/25 06:01:55;;;;;;;;;;;;;;;27.99;60.50;99475.84;5014577;28;815;-51
2023/06/25 06:04:21;;;;;;;;;;;;;;;28.39;59.63;99472.56;5014933;28;772;-55
2023/06/25 06:06:48;;;;;;;;;;;;;;;28.80;58.85;99471.56;5014309;28;835;-55
2023/06/25 06:09:14;;;;;;;;;;;;;;;29.41;56.65;99463.44;5014158;28;862;-51
2023/06/25 06:11:41;;;;;;;;;;;;;;;29.91;54.94;99465.47;5013681;28;925;-53
2023/06/25 06:14:07;;;;;;;;;;;;;;;30.00;53.83;99464.25;5013997;28;1902;-55
2023/06/25 06:16:34;;;;;;;;;;;;;;;30.08;52.98;99459.41;5014158;28;855;-56
2023/06/25 06:19:01;;;;;;;;;;;;;;;30.06;53.27;99456.34;5014108;28;871;-55
2023/06/25 06:21:27;;;;;;;;;;;;;;;30.28;52.99;99449.47;5013968;28;866;-53
2023/06/25 06:23:54;;;;;;;;;;;;;;;30.74;51.61;99452.91;5014052;28;878;-54
2023/06/25 06:26:21;;;;;;;;;;;;;;;30.72;51.06;99446.97;5013942;28;795;-52
2023/06/25 06:28:48;;;;;;;;;;;;;;;30.82;50.96;99458.72;5013921;28;835;-55
2023/06/25 06:31:16;;;;;;;;;;;;;;;30.82;50.36;99443.69;5013894;28;839;-55
2023/06/25 06:33:43;;;;;;;;;;;;;;;30.86;50.47;99452.69;5013648;28;1890;-55
2023/06/25 06:36:10;;;;;;;;;;;;;;;31.36;49.21;99447.88;5013774;28;839;-55
2023/06/25 06:38:36;;;;;;;;;;;;;;;32.23;47.27;99443.81;5013669;28;906;-55
2023/06/25 06:41:02;;;;;;;;;;;;;;;32.53;45.71;99446.06;5013617;28;792;-56
2023/06/25 06:43:30;;;;;;;;;;;;;;;33.24;44.61;99440.00;5013628;28;820;-56
2023/06/25 06:45:56;;;;;;;;;;;;;;;33.55;43.03;99435.06;5013600;28;854;-55
2023/06/25 06:48:23;;;;;;;;;;;;;;;33.76;42.43;99434.13;5013744;28;799;-56
2023/06/25 06:50:49;;;;;;;;;;;;;;;33.84;42.10;99431.25;5013454;28;971;-56
2023/06/25 06:53:16;;;;;;;;;;;;;;;33.48;42.77;99444.44;5013369;28;1937;-57
2023/06/25 06:55:43;;;;;;;;;;;;;;;33.53;42.38;99432.00;5013426;28;846;-56
2023/06/25 06:58:09;;;;;;;;;;;;;;;33.84;42.30;99422.66;5013494;28;870;-57
2023/06/25 07:00:36;;;;;;;;;;;;;;;34.05;40.85;99420.31;5013339;28;795;-57
2023/06/25 07:03:03;;;;;;;;;;;;;;;33.84;41.48;99423.44;5013310;28;869;-56
2023/06/25 07:05:30;;;;;;;;;;;;;;;34.39;40.28;99412.59;5013229;28;791;-56
2023/06/25 07:07:57;;;;;;;;;;;;;;;34.28;40.30;99413.78;4995588;28;1336;-56
2023/06/25 07:10:24;;;;;;;;;;;;;;;34.30;39.78;99419.72;5013238;28;865;-57
2023/06/25 07:12:51;;;;;;;;;;;;;;;34.03;40.38;99414.38;5013209;28;1196;-56
2023/06/25 07:15:17;;;;;;;;;;;;;;;33.80;40.83;99405.06;5012990;28;1910;-58
2023/06/25 07:17:44;;;;;;;;;;;;;;;33.37;41.18;99413.28;5013015;28;822;-57
2023/06/25 07:20:11;;;;;;;;;;;;;;;33.15;42.29;99403.34;5012906;28;874;-56
2023/06/25 07:22:40;;;;;;;;;;;;;;;33.37;41.94;99396.09;5012842;28;874;-56
2023/06/25 07:25:07;;;;;;;;;;;;;;;33.43;42.46;99399.53;5012801;28;855;-57
2023/06/25 07:27:34;;;;;;;;;;;;;;;34.02;41.52;99386.31;5012853;28;823;-56
2023/06/25 07:30:01;;;;;;;;;;;;;;;33.87;41.68;99401.44;5012821;28;861;-57
2023/06/25 07:32:28;;;;;;;;;;;;;;;33.60;42.10;99392.50;5012734;28;878;-56
2023/06/25 07:34:56;;;;;;;;;;;;;;;33.30;42.50;99391.16;5012643;28;1974;-56
2023/06/25 07:37:22;;;;;;;;;;;;;;;33.27;43.61;99392.31;5012562;28;872;-56
2023/06/25 07:39:49;;;;;;;;;;;;;;;33.65;42.62;99389.47;5012508;28;882;-56
2023/06/25 07:42:16;;;;;;;;;;;;;;;33.79;42.32;99383.50;5012619;28;803;-56
2023/06/25 07:44:42;;;;;;;;;;;;;;;33.30;43.43;99388.28;5012489;28;890;-54
2023/06/25 07:47:09;;;;;;;;;;;;;;;33.41;43.11;99375.69;5012547;28;799;-56
2023/06/25 07:49:36;;;;;;;;;;;;;;;33.52;41.55;99378.94;5012229;28;866;-54
2023/06/25 07:52:03;;;;;;;;;;;;;;;33.90;41.32;99369.50;5012299;28;898;-56
2023/06/25 07:54:29;;;;;;;;;;;;;;;34.31;40.27;99375.34;5012312;28;1953;-54
2023/06/25 07:56:55;;;;;;;;;;;;;;;34.29;39.18;99375.94;4994703;28;1225;-56
2023/06/25 07:59:22;;;;;;;;;;;;;;;34.45;38.80;99379.47;5012266;28;851;-56
2023/06/25 08:01:48;;;;;;;;;;;;;;;34.52;39.30;99380.78;5012363;28;862;-56
2023/06/25 08:04:15;;;;;;;;;;;;;;;34.33;39.31;99379.16;5012128;28;889;-56
2023/06/25 08:06:42;;;;;;;;;;;;;;;34.41;39.54;99378.34;5012143;28;1158;-56
2023/06/25 08:09:07;;;;;;;;;;;;;;;34.36;40.25;99372.25;5012193;28;830;-55
2023/06/25 08:11:34;;;;;;;;;;;;;;;34.07;39.87;99382.47;5012103;28;1080;-55
2023/06/25 08:14:00;;;;;;;;;;;;;;;34.13;40.81;99383.81;5011919;28;1907;-55
2023/06/25 08:16:28;;;;;;;;;;;;;;;34.49;39.63;99381.97;5012049;28;819;-56
2023/06/25 08:18:55;;;;;;;;;;;;;;;34.72;39.03;99376.13;5012047;28;951;-56
2023/06/25 08:21:21;;;;;;;;;;;;;;;34.96;38.77;99371.75;5011828;28;878;-55
2023/06/25 08:23:48;;;;;;;;;;;;;;;35.46;38.53;99377.50;5012301;28;858;-58
2023/06/25 08:26:15;;;;;;;;;;;;;;;35.50;37.89;99377.84;5011881;28;886;-56
2023/06/25 08:28:42;;;;;;;;;;;;;;;35.37;37.66;99375.28;5012094;28;839;-56
2023/06/25 08:31:10;;;;;;;;;;;;;;;35.37;37.93;99369.53;5003581;28;823;-55
2023/06/25 08:33:37;;;;;;;;;;;;;;;35.75;36.96;99360.59;5011219;28;1947;-56
2023/06/25 08:36:02;;;;;;;;;;;;;;;35.78;36.46;99358.63;5011826;28;881;-55
2023/06/25 08:38:31;;;;;;;;;;;;;;;35.96;36.50;99351.53;4994083;28;1154;-56
2023/06/25 08:40:58;;;;;;;;;;;;;;;35.73;36.75;99353.91;5011769;28;948;-56
2023/06/25 08:43:24;;;;;;;;;;;;;;;35.60;37.46;99351.34;5011730;28;886;-56
2023/06/25 08:45:51;;;;;;;;;;;;;;;35.70;36.54;99357.94;5011778;28;866;-57
2023/06/25 08:48:18;;;;;;;;;;;;;;;35.56;36.59;99349.63;5012026;28;893;-56
2023/06/25 08:50:49;;;;;;;;;;;;;;;35.83;36.31;99353.97;5011491;28;873;-56
2023/06/25 08:53:15;;;;;;;;;;;;;;;35.66;36.88;99351.88;5009753;28;1949;-52
2023/06/25 08:55:43;;;;;;;;;;;;;;;36.02;36.95;99353.38;5011831;28;827;-56
2023/06/25 08:58:10;;;;;;;;;;;;;;;35.72;36.48;99361.00;5011814;28;828;-55
2023/06/25 09:00:35;;;;;;;;;;;;;;;35.39;38.01;99346.75;5011708;28;831;-56
2023/06/25 09:03:02;;;;;;;;;;;;;;;35.76;37.97;99349.84;5011651;28;848;-55
2023/06/25 09:05:29;;;;;;;;;;;;;;;35.90;37.14;99356.78;5011628;28;917;-55
2023/06/25 09:07:56;;;;;;;;;;;;;;;35.76;37.63;99344.88;5011847;28;932;-55
2023/06/25 09:10:23;;;;;;;;;;;;;;;35.93;35.88;99349.88;5011724;28;827;-57
2023/06/25 09:12:51;;;;;;;;;;;;;;;35.60;36.29;99342.72;5011660;28;1207;-57
2023/06/25 09:15:21;;;;;;;;;;;;;;;35.48;37.79;99334.56;5011685;28;1976;-57
2023/06/25 09:17:47;;;;;;;;;;;;;;;35.54;37.16;99328.59;5011579;28;866;-56
2023/06/25 09:20:14;;;;;;;;;;;;;;;35.42;36.38;99333.31;4993951;28;831;-57
2023/06/25 09:22:55;;;;;;;;;;;;;;;35.31;37.12;99329.56;5011597;28;812;-57
2023/06/25 09:25:31;;;;;;;;;;;;;;;35.35;37.66;99332.78;5011513;28;922;-56
2023/06/25 09:28:00;;;;;;;;;;;;;;;35.05;38.08;99333.78;5011517;28;780;-57
2023/06/25 09:30:27;;;;;;;;;;;;;;;34.90;37.96;99333.91;5011488;28;831;-57
2023/06/25 09:32:55;;;;;;;;;;;;;;;34.96;37.55;99335.19;5011531;28;815;-57
2023/06/25 09:35:25;;;;;;;;;;;;;;;34.83;39.77;99332.63;5011251;28;1890;-57
2023/06/25 09:37:52;;;;;;;;;;;;;;;34.97;39.24;99321.59;5011338;28;883;-57
2023/06/25 09:40:19;;;;;;;;;;;;;;;35.32;39.13;99325.34;5012193;28;858;-57
2023/06/25 10:11:38;;;;;;;;;;;;;;;34.43;42.23;99303.97;6036959;23;1684;-65
2023/06/25 10:14:05;;;;;;;;;;;;;;;34.10;43.07;99309.66;4994308;28;1915;-63
2023/06/25 10:16:31;;;;;;;;;;;;;;;34.01;43.13;99301.66;4994653;28;857;-63
2023/06/25 10:18:58;;;;;;;;;;;;;;;33.66;43.78;99310.00;4994627;28;807;-63
2023/06/25 10:21:27;;;;;;;;;;;;;;;33.54;44.05;99313.25;4994504;28;886;-64
2023/06/25 10:23:56;;;;;;;;;;;;;;;34.27;41.93;99300.41;4994806;28;807;-64
2023/06/25 10:26:29;;;;;;;;;;;;;;;34.82;40.21;99299.50;4994590;28;838;-64
2023/06/25 10:28:59;;;;;;;;;;;;;;;35.09;39.42;99302.56;4994651;28;881;-64
2023/06/25 10:31:26;;;;;;;;;;;;;;;35.04;40.55;99288.44;4994386;28;910;-63
2023/06/25 10:34:01;;;;;;;;;;;;;;;35.27;40.46;99299.75;4994268;28;1981;-63
2023/06/25 10:36:28;;;;;;;;;;;;;;;34.77;40.65;99292.66;4994356;28;874;-63
2023/06/25 10:38:58;;;;;;;;;;;;;;;34.53;40.22;99287.66;4994214;28;827;-62
2023/06/25 10:41:28;;;;;;;;;;;;;;;34.61;39.83;99290.44;4994851;28;767;-62
2023/06/25 10:43:56;;;;;;;;;;;;;;;34.72;39.05;99281.44;4994346;28;943;-63
2023/06/25 10:46:30;;;;;;;;;;;;;;;34.92;40.15;99282.41;4994147;28;795;-62
2023/06/25 10:48:59;;;;;;;;;;;;;;;34.99;41.11;99281.56;4994026;28;850;-63
2023/06/25 10:51:29;;;;;;;;;;;;;;;35.23;40.30;99285.03;4993950;28;842;-63
2023/06/25 10:53:56;;;;;;;;;;;;;;;34.55;41.63;99279.22;4993846;28;1894;-63
2023/06/25 10:56:23;;;;;;;;;;;;;;;34.73;41.64;99275.09;4993506;28;874;-63
2023/06/25 10:58:57;;;;;;;;;;;;;;;35.32;40.41;99279.41;4993846;28;815;-63
2023/06/25 11:01:24;;;;;;;;;;;;;;;36.06;39.43;99278.97;4993900;28;815;-63
2023/06/25 11:03:51;;;;;;;;;;;;;;;35.20;39.66;99275.50;4993799;28;933;-63
2023/06/25 11:06:18;;;;;;;;;;;;;;;34.92;40.28;99277.44;4993703;28;875;-63
2023/06/25 11:08:47;;;;;;;;;;;;;;;35.10;39.66;99277.47;4993858;28;890;-63
2023/06/25 11:11:14;;;;;;;;;;;;;;;35.80;38.51;99266.81;4993764;28;944;-63
2023/06/25 11:13:41;;;;;;;;;;;;;;;36.58;37.76;99270.97;4993268;28;1914;-64
2023/06/25 11:16:07;;;;;;;;;;;;;;;36.78;37.16;99271.81;4993560;28;846;-63
2023/06/25 11:18:34;;;;;;;;;;;;;;;36.45;36.67;99268.47;4993524;28;898;-61
2023/06/25 11:21:03;;;;;;;;;;;;;;;35.89;37.16;99256.75;4993412;28;886;-63
2023/06/25 11:23:31;;;;;;;;;;;;;;;36.19;37.73;99249.88;4993328;28;863;-63
2023/06/25 11:26:02;;;;;;;;;;;;;;;36.61;37.54;99242.34;4993385;28;831;-65
2023/06/25 11:28:29;;;;;;;;;;;;;;;36.53;36.75;99245.34;4975725;28;2450;-62
2023/06/25 11:30:57;;;;;;;;;;;;;;;36.27;36.64;99247.63;4993140;28;959;-64
2023/06/25 11:33:24;;;;;;;;;;;;;;;36.50;36.82;99235.03;4993215;28;1894;-62
2023/06/25 11:35:51;;;;;;;;;;;;;;;36.42;35.72;99226.50;4993159;28;920;-63
2023/06/25 11:38:28;;;;;;;;;;;;;;;36.25;35.09;99235.22;4993209;28;807;-63
2023/06/25 11:40:56;;;;;;;;;;;;;;;36.32;34.77;99228.59;4993498;28;807;-64
2023/06/25 11:43:23;;;;;;;;;;;;;;;36.84;34.25;99218.97;4993004;28;886;-63
2023/06/25 11:45:50;;;;;;;;;;;;;;;37.29;32.35;99213.75;4993132;28;866;-61
2023/06/25 11:48:17;;;;;;;;;;;;;;;37.11;31.70;99216.78;4993145;28;842;-60
2023/06/25 11:50:44;;;;;;;;;;;;;;;37.34;32.06;99198.28;4993036;28;811;-62
2023/06/25 11:53:11;;;;;;;;;;;;;;;37.78;32.50;99191.47;4992895;28;1883;-60
2023/06/25 11:55:38;;;;;;;;;;;;;;;35.70;36.12;99203.53;4992806;28;1109;-63
2023/06/25 11:58:05;;;;;;;;;;;;;;;35.50;37.23;99202.59;4992857;28;823;-64
2023/06/25 12:00:32;;;;;;;;;;;;;;;37.20;34.12;99189.34;4992997;28;862;-63
2023/06/25 12:02:59;;;;;;;;;;;;;;;38.47;32.62;99192.00;4992922;28;804;-64
2023/06/25 12:05:26;;;;;;;;;;;;;;;38.76;31.60;99186.88;4992832;28;862;-61
2023/06/25 12:07:52;;;;;;;;;;;;;;;39.13;30.61;99174.94;4992139;28;819;-61
2023/06/25 12:10:19;;;;;;;;;;;;;;;39.93;29.26;99179.44;4992841;28;842;-61
2023/06/25 12:12:47;;;;;;;;;;;;;;;39.90;27.68;99178.53;4992656;28;1342;-62
2023/06/25 12:15:14;;;;;;;;;;;;;;;39.95;27.63;99170.91;4992645;28;1950;-61
2023/06/25 12:17:42;;;;;;;;;;;;;;;39.51;28.26;99173.13;4993026;28;806;-61
2023/06/25 12:20:08;;;;;;;;;;;;;;;39.80;28.06;99148.97;4992681;28;870;-61
2023/06/25 12:22:35;;;;;;;;;;;;;;;39.80;28.58;99157.63;4992581;28;865;-60
2023/06/25 12:25:04;;;;;;;;;;;;;;;40.28;28.28;99161.34;4992469;28;791;-61
2023/06/25 12:27:30;;;;;;;;;;;;;;;40.47;27.60;99164.03;4992174;28;886;-61
2023/06/25 12:29:57;;;;;;;;;;;;;;;40.39;26.75;99157.72;4992567;28;795;-62
2023/06/25 12:32:23;;;;;;;;;;;;;;;40.48;25.91;99156.09;4992309;28;791;-62
2023/06/25 12:34:50;;;;;;;;;;;;;;;40.58;25.76;99145.88;4992311;28;1890;-62
2023/06/25 12:37:17;;;;;;;;;;;;;;;41.20;25.63;99132.94;4992392;28;827;-61
2023/06/25 12:39:43;;;;;;;;;;;;;;;41.01;25.68;99141.91;4992359;28;893;-60
2023/06/25 12:42:10;;;;;;;;;;;;;;;40.71;26.06;99135.78;4992488;28;854;-61
2023/06/25 12:44:37;;;;;;;;;;;;;;;39.02;28.06;99132.31;4992731;28;854;-62
2023/06/25 12:47:04;;;;;;;;;;;;;;;36.49;31.73;99127.81;4992967;28;784;-63
2023/06/25 12:49:30;;;;;;;;;;;;;;;35.00;33.56;99133.81;4992669;28;815;-63
2023/06/25 12:51:57;;;;;;;;;;;;;;;35.95;32.50;99125.00;4992528;28;791;-64
2023/06/25 12:54:24;;;;;;;;;;;;;;;37.56;31.00;99125.03;4992014;28;1906;-64
2023/06/25 12:56:50;;;;;;;;;;;;;;;38.66;29.09;99116.88;4990945;28;1753;-61
2023/06/25 12:59:17;;;;;;;;;;;;;;;39.08;27.76;99115.38;4991987;28;875;-61
2023/06/25 13:01:43;;;;;;;;;;;;;;;38.86;27.25;99117.53;4991976;28;894;-61
2023/06/25 13:04:10;;;;;;;;;;;;;;;38.60;27.65;99110.69;4992006;28;862;-62
2023/06/25 13:06:36;;;;;;;;;;;;;;;38.57;27.54;99123.47;4991957;28;913;-61
2023/06/25 13:09:04;;;;;;;;;;;;;;;38.12;28.71;99124.00;4991820;28;874;-63
2023/06/25 13:11:34;;;;;;;;;;;;;;;37.79;28.89;99121.66;4992021;28;1032;-63
2023/06/25 13:14:00;;;;;;;;;;;;;;;38.02;29.39;99129.00;4991842;28;1898;-64
2023/06/25 13:16:27;;;;;;;;;;;;;;;38.11;29.32;99127.47;4991952;28;890;-61
2023/06/25 13:18:54;;;;;;;;;;;;;;;37.59;30.18;99131.72;4992814;28;749;-64
2023/06/25 13:21:20;;;;;;;;;;;;;;;37.11;30.46;99121.72;4995717;28;878;-64
2023/06/25 13:23:47;;;;;;;;;;;;;;;36.63;31.19;99116.66;4995640;28;871;-61
2023/06/25 13:26:13;;;;;;;;;;;;;;;36.39;31.45;99124.91;4995604;28;870;-63
2023/06/25 13:28:40;;;;;;;;;;;;;;;35.45;33.21;99117.44;4995490;28;820;-64
2023/06/25 13:31:08;;;;;;;;;;;;;;;34.64;34.24;99123.66;4995498;28;831;-63